Golden Meadow, Louisiana
Current Conditions -  °F | °C
As of 10:15 PM on Tuesday 25 Nov 2014 (Local Time) from KXPY Reporting Station
Clear Clear  
Wind Chill: 50°   Ceiling: Unl
Heat Index: 50°   Visibility: 10mi
Dew Point: 36°   Wind: 12mph
Humidity: 58%   Direction: 340°NNW
Pressure: 30.25"   Gusts: NA
Location:  29.38°N, 90.26°W
Report Text: KXPY 260415Z AUTO 34010KT 10SM CLR 10/02 A3025 RMK A01
Loading
Personal Weather Stations






























Interactive Weather Map New forecast layout! Learn more

10-Day Weather Forecast

Advertisements
Track Severe Weather on mobile